Portada
METAR-TAF:

METAR-TAF

Aeropuertos :

Aeropuerto Internacional Rarotonga

Rarotonga, Islas Cook

latitud: 21-12S, longitud: 159-49W, altitud: 7 m

Observación

El informe se hizo hace 11 minutos, a las 16:30 UTC
Viento 10 kt del este
Temperatura 25°C
Humedad 89%
Presión 1012 hPa
Visibilidad 10 km o más

METAR: NCRG 111630Z AUTO 08010KT 9999 FEW010/// SCT014/// 25/23 Q1012

Hora: 06:41 (16:41 UTC)

Pronóstico

El informe se hizo hace 5 horas y 32 minutos, a las 11:09 UTC
Pronóstico válido del 11 a las 12 UTC al 12 a las 12 UTC
Viento 10 kt del este
Visibilidad 10 km o más
Nubes dispersas a una altura de 1400 ft
Cielo nuboso a una altura de 2000 ft
chaparrones de lluvia
Temporalmente
del 11 a las 12 UTC al 12 a las 12 UTC
Viento 15 kt del este con ráfagas de 25 kt
Visibilidad: 5000 m
Cielo nuboso a una altura de 1500 ft
chaparrones de lluvia

TAF: NCRG 111109Z 1112/1212 09010KT 9999 -SHRA SCT014 BKN020 TEMPO 1112/1212 10015G25KT 5000 SHRA BKN015

Observaciones y pronósticos meteorológicos de más de 4000 aeropuertos (mensajes METAR y TAF).

Los puntos amarillos y rojos representan las estaciones disponibles.

Ponga el ratón en el punto deseado para ver el nombre de la estación.

Haga clic para ver las observaciones y los pronósticos meteorológicos.

Para cambiar el mapa : haga clic en los botones verdes con una cruz de color negro para hacer un zoom, en el botón verde con un guión para alejar o en las flechas verdes para mapas adyacentes.


METAR-TAF: